Slotergracht — PDBP — position and weather

sailwx.info

Track history (hours):
 
Tides and Currents Weather Stations Pressure Air Temp Water Temp Dewpoint Dewpoint Depression Visibility Wind Speed Wind Dir Waves Ship Positions

Slotergracht

Last reported at 2018-Sep-20 10:14 UTC. Time now 2018-Sep-20 13:28 UTC.
Position N 54°47' E 013°26'.

Length 168 m; beam 25 m.

Type: Cargo ship. MMSI: 246456000.

Date/timePositionNaut miles runAvg speedWind from/ knotsBaromVisibWave heightAir tempDewpointWater temp
2018-Sep-20 10:14N 54°47' E 013°26'815.3
2018-Sep-20 09:44N 54°45' E 013°39'815.6
2018-Sep-20 09:14N 54°43' E 013°52'315.8
2018-Sep-20 09:03N 54°42' E 013°57'115.6
2018-Sep-20 09:00N 54°42' E 013°58'815.6
2018-Sep-20 08:30N 54°40' E 014°11'715.4
2018-Sep-20 08:01N 54°38' E 014°24'015.2
2018-Sep-20 08:00N 54°38' E 014°24'815.3
2018-Sep-20 07:30N 54°39' E 014°37'715.2
2018-Sep-20 07:03N 54°40' E 014°49'115.2
2018-Sep-20 06:59N 54°40' E 014°51'715.3
2018-Sep-20 06:30N 54°41' E 015°03'715.3
2018-Sep-20 06:04N 54°42' E 015°15'115.1
2018-Sep-20 06:00N 54°43' E 015°16'815.3
2018-Sep-20 05:30N 54°44' E 015°29'715.8
2018-Sep-20 05:03N 54°45' E 015°42'115.6
2018-Sep-20 05:00N 54°45' E 015°43'1015.8
2018-Sep-20 04:21N 54°47' E 016°01'515.9
2018-Sep-20 04:03N 54°48' E 016°09'115.8
2018-Sep-20 04:00N 54°48' E 016°10'915.6
2018-Sep-20 03:27N 54°49' E 016°25'815.8
2018-Sep-20 02:57N 54°50' E 016°39'2115.9
2018-Sep-20 01:39N 54°55' E 017°14'712.8
2018-Sep-20 01:07N 54°56' E 017°25'310.8
2018-Sep-20 00:53N 54°56' E 017°30'616.1
2018-Sep-20 00:30N 54°57' E 017°40'716.2
2018-Sep-20 00:03N 54°58' E 017°53'115.7
2018-Sep-20 00:00N 54°58' E 017°54'510.9
2018-Sep-19 23:31N 54°58' E 018°03'714.9
2018-Sep-19 23:04N 54°58' E 018°15'115.2
2018-Sep-19 23:01N 54°58' E 018°16'714.4
2018-Sep-19 22:30N 54°58' E 018°29'4 9.8
2018-Sep-19 22:03N 54°56' E 018°36'0 7.9
2018-Sep-19 22:00N 54°56' E 018°37'713.3
2018-Sep-19 21:30N 54°52' E 018°46'612.9
2018-Sep-19 21:03N 54°48' E 018°54'111.3
2018-Sep-19 21:00N 54°48' E 018°54'4 7.9
2018-Sep-19 20:30N 54°44' E 018°58'511.6
2018-Sep-19 20:03N 54°39' E 018°56'112.2
2018-Sep-19 20:00N 54°39' E 018°56'611.8
2018-Sep-19 19:30N 54°33' E 018°51'3 7.6
2018-Sep-19 19:03N 54°32' E 018°46'0 6.6
2018-Sep-19 19:00N 54°32' E 018°45'4 8.1
2018-Sep-19 18:30N 54°32' E 018°38'4 8.2
2018-Sep-19 18:03N 54°32' E 018°32'0 5.8
2018-Sep-19 18:00N 54°32' E 018°31'1 1.4
2018-Sep-19 17:30N 54°33' E 018°30'0 0.0
2018-Sep-19 17:03N 54°33' E 018°30'0 0.0
2018-Sep-19 17:00N 54°33' E 018°30'0 0.0
2018-Sep-19 16:30N 54°33' E 018°30'0 0.1
2018-Sep-19 16:03N 54°33' E 018°30'0 0.2
2018-Sep-19 16:00N 54°33' E 018°30'0 0.0
2018-Sep-19 15:30N 54°33' E 018°30'0 0.0
2018-Sep-19 15:03N 54°33' E 018°30'0 0.1
2018-Sep-19 15:00N 54°33' E 018°30'0 0.0
2018-Sep-19 14:30N 54°33' E 018°30'0 0.0
2018-Sep-19 13:30N 54°33' E 018°30'0 0.0
2018-Sep-19 13:03N 54°33' E 018°30'0 0.1
2018-Sep-19 13:00N 54°33' E 018°30'0 0.0
2018-Sep-19 12:30N 54°33' E 018°30'0 0.0
2018-Sep-19 12:03N 54°33' E 018°30'0 0.1
2018-Sep-19 12:00N 54°33' E 018°30'0 0.0
2018-Sep-19 11:30N 54°33' E 018°30'0 0.0
2018-Sep-19 11:03N 54°33' E 018°30'0 0.1
2018-Sep-19 11:00N 54°33' E 018°30'0 0.0
2018-Sep-19 10:30N 54°33' E 018°30'0 0.0
2018-Sep-19 10:03N 54°33' E 018°30'0 0.1
2018-Sep-19 10:00N 54°33' E 018°30'0 0.0
2018-Sep-19 09:30N 54°33' E 018°30'0 0.0
2018-Sep-19 09:03N 54°33' E 018°30'0 0.0
2018-Sep-19 09:00N 54°33' E 018°30'0 0.0
2018-Sep-19 08:30N 54°33' E 018°30'0 0.0
2018-Sep-19 08:03N 54°33' E 018°30'0 0.1
2018-Sep-19 08:00N 54°33' E 018°30'0 0.0
2018-Sep-19 07:30N 54°33' E 018°30'0 0.0
2018-Sep-19 07:03N 54°33' E 018°30'0 0.1
2018-Sep-19 07:00N 54°33' E 018°30'0 0.0
2018-Sep-19 06:30N 54°33' E 018°30'0 0.0
2018-Sep-19 06:03N 54°33' E 018°30'0 0.1
2018-Sep-19 06:00N 54°33' E 018°30'0 0.0
2018-Sep-19 05:30N 54°33' E 018°30'0 0.0
2018-Sep-19 05:03N 54°33' E 018°30'0 0.1
2018-Sep-19 05:00N 54°33' E 018°30'0 0.0
2018-Sep-19 04:30N 54°33' E 018°30'0 0.1
2018-Sep-19 04:03N 54°33' E 018°30'0 0.3
2018-Sep-19 04:00N 54°33' E 018°30'0 0.0
2018-Sep-19 03:30N 54°33' E 018°30'0 0.0
2018-Sep-19 03:03N 54°33' E 018°30'0 0.1
2018-Sep-19 03:00N 54°33' E 018°30'0 0.0
2018-Sep-19 02:30N 54°33' E 018°30'0 0.1
2018-Sep-19 02:03N 54°33' E 018°30'0 0.5
2018-Sep-19 02:00N 54°33' E 018°30'0 0.0
2018-Sep-19 01:30N 54°33' E 018°30'0 0.0
2018-Sep-19 01:03N 54°33' E 018°30'0 0.1
2018-Sep-19 01:00N 54°33' E 018°30'0 0.0
2018-Sep-19 00:30N 54°33' E 018°30'0 0.0
2018-Sep-19 00:03N 54°33' E 018°30'0 0.0
2018-Sep-19 00:00N 54°33' E 018°30'0 0.0
2018-Sep-18 23:30N 54°33' E 018°30'0 0.0
2018-Sep-18 23:03N 54°33' E 018°30'0 0.1
2018-Sep-18 23:00N 54°33' E 018°30'0 0.0
2018-Sep-18 22:30N 54°33' E 018°30'0 0.0
2018-Sep-18 22:03N 54°33' E 018°30'0 0.2
2018-Sep-18 22:00N 54°33' E 018°30'0 0.0
2018-Sep-18 21:30N 54°33' E 018°30'0 0.0
2018-Sep-18 21:03N 54°33' E 018°30'0 0.1
2018-Sep-18 21:00N 54°33' E 018°30'0 0.0
2018-Sep-18 20:30N 54°33' E 018°30'0 0.0
2018-Sep-18 20:03N 54°33' E 018°30'0 0.0
2018-Sep-18 20:00N 54°33' E 018°30'0 0.0
2018-Sep-18 19:30N 54°33' E 018°30'0 0.0
2018-Sep-18 19:03N 54°33' E 018°30'0 0.2
2018-Sep-18 19:00N 54°33' E 018°30'0 0.0
2018-Sep-18 18:30N 54°33' E 018°30'0 0.0
2018-Sep-18 18:03N 54°33' E 018°30'0 0.1
2018-Sep-18 18:00N 54°33' E 018°30'0 0.0
2018-Sep-18 17:30N 54°33' E 018°30'0 0.0
2018-Sep-18 17:03N 54°33' E 018°30'0 0.1
2018-Sep-18 17:00N 54°33' E 018°30'0 0.0
2018-Sep-18 16:30N 54°33' E 018°30'0 0.0
2018-Sep-18 16:03N 54°33' E 018°30'0 0.1
2018-Sep-18 16:00N 54°33' E 018°30'0 0.0
2018-Sep-18 15:30N 54°33' E 018°30'0 0.0
2018-Sep-18 15:03N 54°33' E 018°30'0 0.1
2018-Sep-18 15:00N 54°33' E 018°30'0 0.0
2018-Sep-18 14:02N 54°33' E 018°30'0 0.0
2018-Sep-18 13:59N 54°33' E 018°30'0 0.0
2018-Sep-18 13:29N 54°33' E 018°30'0 0.0
2018-Sep-18 13:02N 54°33' E 018°30'0 0.0
2018-Sep-18 12:59N 54°33' E 018°30'0 0.0
2018-Sep-18 12:29N 54°33' E 018°30'0 0.0
2018-Sep-18 12:02N 54°33' E 018°30'0 0.1
2018-Sep-18 11:59N 54°33' E 018°30'0 0.0
2018-Sep-18 11:29N 54°33' E 018°30'0 0.0
2018-Sep-18 11:02N 54°33' E 018°30'0 0.1
2018-Sep-18 10:59N 54°33' E 018°30'0 0.0
2018-Sep-18 10:29N 54°33' E 018°30'0 0.0
2018-Sep-18 10:02N 54°33' E 018°30'0 0.1
2018-Sep-18 09:59N 54°33' E 018°30'0 0.0
2018-Sep-18 09:29N 54°33' E 018°30'0 0.0
2018-Sep-18 09:02N 54°33' E 018°30'0 0.1
2018-Sep-18 08:59N 54°33' E 018°30'0 0.0
2018-Sep-18 08:29N 54°33' E 018°30'0 0.0
2018-Sep-18 08:02N 54°33' E 018°30'0 0.3
2018-Sep-18 07:59N 54°33' E 018°30'0 0.0
2018-Sep-18 07:29N 54°33' E 018°30'0 0.0
2018-Sep-18 07:02N 54°33' E 018°30'0 0.1
2018-Sep-18 06:59N 54°33' E 018°30'0 0.0
2018-Sep-18 06:29N 54°33' E 018°30'0 0.0
2018-Sep-18 06:02N 54°33' E 018°30'0 0.0
2018-Sep-18 05:59N 54°33' E 018°30'0 0.0
2018-Sep-18 05:29N 54°33' E 018°30'0 0.0
2018-Sep-18 05:02N 54°33' E 018°30'0 0.1
2018-Sep-18 04:59N 54°33' E 018°30'0 0.0
2018-Sep-18 04:29N 54°33' E 018°30'0 0.0
2018-Sep-18 04:02N 54°33' E 018°30'0 0.1
2018-Sep-18 03:59N 54°33' E 018°30'0 0.0
2018-Sep-18 03:29N 54°33' E 018°30'0 0.0
2018-Sep-18 03:02N 54°33' E 018°30'0 0.0
2018-Sep-18 02:59N 54°33' E 018°30'0 0.0
2018-Sep-18 02:29N 54°33' E 018°30'0 0.0
2018-Sep-18 02:02N 54°33' E 018°30'0 0.1
2018-Sep-18 01:59N 54°33' E 018°30'0 0.0
2018-Sep-18 01:29N 54°33' E 018°30'0 0.0
2018-Sep-18 01:02N 54°33' E 018°30'0 0.0
2018-Sep-18 00:59N 54°33' E 018°30'0 0.0
2018-Sep-18 00:29N 54°33' E 018°30'0 0.0
2018-Sep-18 00:02N 54°33' E 018°30'0 0.1
2018-Sep-17 23:59N 54°33' E 018°30'0 0.0
2018-Sep-17 23:29N 54°33' E 018°30'0 0.0
2018-Sep-17 23:02N 54°33' E 018°30'0 0.1
2018-Sep-17 22:59N 54°33' E 018°30'0 0.0
2018-Sep-17 22:27N 54°33' E 018°30'0 0.6
2018-Sep-17 22:03N 54°33' E 018°31'0 2.7
2018-Sep-17 22:00N 54°33' E 018°31'3 6.3
2018-Sep-17 21:30N 54°32' E 018°36'2 3.4
2018-Sep-17 21:03N 54°31' E 018°39'0 0.5
2018-Sep-17 21:00N 54°31' E 018°39'0 0.1
2018-Sep-17 20:30N 54°31' E 018°39'0 0.1
2018-Sep-17 20:03N 54°31' E 018°39'0 0.0
2018-Sep-17 20:00N 54°31' E 018°39'0 0.0
2018-Sep-17 19:30N 54°31' E 018°39'0 0.0
2018-Sep-17 19:03N 54°31' E 018°39'0 0.0
2018-Sep-17 19:00N 54°31' E 018°39'0 0.0
2018-Sep-17 18:30N 54°31' E 018°39'0 0.0
2018-Sep-17 18:03N 54°31' E 018°39'0 0.1
2018-Sep-17 18:00N 54°31' E 018°39'0 0.0
2018-Sep-17 17:30N 54°31' E 018°39'0 0.0
2018-Sep-17 17:03N 54°31' E 018°39'0 0.1
2018-Sep-17 17:00N 54°31' E 018°39'0 0.0
2018-Sep-17 16:30N 54°31' E 018°39'0 0.0
2018-Sep-17 16:03N 54°31' E 018°39'0 0.1
2018-Sep-17 16:00N 54°31' E 018°39'0 0.0
2018-Sep-17 15:30N 54°31' E 018°39'0 0.0
2018-Sep-17 15:03N 54°31' E 018°39'0 0.1
2018-Sep-17 15:00N 54°31' E 018°39'0 0.0
2018-Sep-17 14:30N 54°31' E 018°39'0 0.1
2018-Sep-17 14:00N 54°31' E 018°39'0 0.0
2018-Sep-17 13:30N 54°31' E 018°39'0 0.1
2018-Sep-17 13:03N 54°31' E 018°39'0 0.1
2018-Sep-17 13:00N 54°31' E 018°39'0 0.0
2018-Sep-17 12:30N 54°31' E 018°39'0 0.0
2018-Sep-17 12:03N 54°31' E 018°39'0 0.0
2018-Sep-17 12:00N 54°31' E 018°39'0 0.0
2018-Sep-17 11:30N 54°31' E 018°39'0 0.0
2018-Sep-17 11:03N 54°31' E 018°39'0 0.0
2018-Sep-17 11:00N 54°31' E 018°39'0 0.0
2018-Sep-17 10:30N 54°31' E 018°39'0 0.1
2018-Sep-17 10:03N 54°31' E 018°39'0 0.1
2018-Sep-17 10:00N 54°31' E 018°39'0 0.0
2018-Sep-17 09:30N 54°31' E 018°39'0 0.0
2018-Sep-17 09:03N 54°31' E 018°39'0 0.3
2018-Sep-17 09:00N 54°31' E 018°39'0 0.1
2018-Sep-17 08:30N 54°32' E 018°39'0 0.0
2018-Sep-17 08:03N 54°32' E 018°39'0 0.0
2018-Sep-17 08:00N 54°32' E 018°39'0 0.0
2018-Sep-17 07:30N 54°32' E 018°39'0 0.0
2018-Sep-17 07:03N 54°32' E 018°39'0 0.1
2018-Sep-17 07:00N 54°32' E 018°39'0 0.1
2018-Sep-17 06:30N 54°32' E 018°39'0 0.1
2018-Sep-17 06:03N 54°32' E 018°39'0 0.0
2018-Sep-17 06:00N 54°32' E 018°39'0 0.1
2018-Sep-17 05:30N 54°32' E 018°39'0 0.0
2018-Sep-17 05:03N 54°32' E 018°39'0 0.1
2018-Sep-17 05:00N 54°32' E 018°39'0 0.0
2018-Sep-17 04:30N 54°32' E 018°39'0 0.0
2018-Sep-17 04:03N 54°32' E 018°39'0 0.1
2018-Sep-17 04:00N 54°32' E 018°39'0 0.0
2018-Sep-17 03:30N 54°32' E 018°39'0 0.0
2018-Sep-17 03:03N 54°32' E 018°39'0 0.1
2018-Sep-17 03:00N 54°32' E 018°39'0 0.0
2018-Sep-17 02:30N 54°32' E 018°39'0 0.0
2018-Sep-17 02:03N 54°32' E 018°39'0 0.1
2018-Sep-17 02:00N 54°32' E 018°39'0 0.0
2018-Sep-17 01:30N 54°32' E 018°39'0 0.0
2018-Sep-17 01:03N 54°32' E 018°39'0 0.1
2018-Sep-17 01:00N 54°32' E 018°39'0 0.1
2018-Sep-17 00:30N 54°32' E 018°39'0 0.0
2018-Sep-17 00:03N 54°32' E 018°39'0 0.1
2018-Sep-17 00:00N 54°32' E 018°39'0 0.0
2018-Sep-16 23:30N 54°32' E 018°39'0 0.0
2018-Sep-16 23:03N 54°32' E 018°39'0 0.0
2018-Sep-16 23:00N 54°32' E 018°39'0 0.0
2018-Sep-16 22:30N 54°32' E 018°39'0 0.0
2018-Sep-16 22:03N 54°32' E 018°39'0 0.1
2018-Sep-16 22:00N 54°32' E 018°39'0 0.0
2018-Sep-16 21:30N 54°32' E 018°39'0 0.0
2018-Sep-16 21:03N 54°32' E 018°39'0 0.1
2018-Sep-16 21:00N 54°32' E 018°39'0 0.0
2018-Sep-16 20:30N 54°32' E 018°39'0 0.0
2018-Sep-16 20:03N 54°32' E 018°39'0 0.1
2018-Sep-16 20:00N 54°32' E 018°39'0 0.0
2018-Sep-16 19:30N 54°32' E 018°39'0 0.1
2018-Sep-16 19:03N 54°32' E 018°39'0 0.5
2018-Sep-16 19:00N 54°32' E 018°39'3 7.0
2018-Sep-16 18:31N 54°32' E 018°44'3 6.8
2018-Sep-16 18:03N 54°29' E 018°44'116.1
2018-Sep-16 18:00N 54°29' E 018°43'4 8.7
2018-Sep-16 17:31N 54°25' E 018°39'1 3.1
2018-Sep-16 17:03N 54°24' E 018°40'0 3.5
2018-Sep-16 17:01N 54°24' E 018°40'0 1.0
2018-Sep-16 16:30N 54°23' E 018°40'0 0.0
2018-Sep-16 16:01N 54°23' E 018°40'0 0.0
2018-Sep-16 15:58N 54°23' E 018°40'0 0.0
2018-Sep-16 15:28N 54°23' E 018°40'0 0.0
2018-Sep-16 15:01N 54°23' E 018°40'0 0.1
2018-Sep-16 14:58N 54°23' E 018°40'0 0.0
2018-Sep-16 14:01N 54°23' E 018°40'0 0.0
2018-Sep-16 13:28N 54°23' E 018°40'0 0.0
2018-Sep-16 13:01N 54°23' E 018°40'0 0.0
2018-Sep-16 12:58N 54°23' E 018°40'0 0.0
2018-Sep-16 12:28N 54°23' E 018°40'0 0.0
2018-Sep-16 12:01N 54°23' E 018°40'0 0.1
2018-Sep-16 11:58N 54°23' E 018°40'0 0.0
2018-Sep-16 11:28N 54°23' E 018°40'0 0.0
2018-Sep-16 11:01N 54°23' E 018°40'0 0.0
2018-Sep-16 10:58N 54°23' E 018°40'0 0.0
2018-Sep-16 10:28N 54°23' E 018°40'0 0.0
2018-Sep-16 10:01N 54°23' E 018°40'0 0.1
2018-Sep-16 09:58N 54°23' E 018°40'0 0.0
2018-Sep-16 09:28N 54°23' E 018°40'0 0.0
2018-Sep-16 09:01N 54°23' E 018°40'0 0.0
2018-Sep-16 08:58N 54°23' E 018°40'0 0.0
2018-Sep-16 08:28N 54°23' E 018°40'0 0.0
2018-Sep-16 08:01N 54°23' E 018°40'0 0.1
2018-Sep-16 07:58N 54°23' E 018°40'0 0.0
2018-Sep-16 07:25N 54°23' E 018°40'0 0.0
2018-Sep-16 07:01N 54°23' E 018°40'0 0.0
2018-Sep-16 06:58N 54°23' E 018°40'0 0.0
2018-Sep-16 06:28N 54°23' E 018°40'0 0.0
2018-Sep-16 06:01N 54°23' E 018°40'0 0.0
2018-Sep-16 05:58N 54°23' E 018°40'0 0.0
2018-Sep-16 05:28N 54°23' E 018°40'0 0.0
2018-Sep-16 05:01N 54°23' E 018°40'0 0.0
2018-Sep-16 04:58N 54°23' E 018°40'0 0.0
2018-Sep-16 04:28N 54°23' E 018°40'0 0.0
2018-Sep-16 04:01N 54°23' E 018°40'0 0.2
2018-Sep-16 03:58N 54°23' E 018°40'0 0.0
2018-Sep-16 03:28N 54°23' E 018°40'0 0.0
2018-Sep-16 03:01N 54°23' E 018°40'0 0.0
2018-Sep-16 02:58N 54°23' E 018°40'0 0.0
2018-Sep-16 02:28N 54°23' E 018°40'0 0.0
2018-Sep-16 02:01N 54°23' E 018°40'0 0.1
2018-Sep-16 01:58N 54°23' E 018°40'0 0.0
2018-Sep-16 01:28N 54°23' E 018°40'0 0.0
2018-Sep-16 01:01N 54°23' E 018°40'0 0.1
2018-Sep-16 00:58N 54°23' E 018°40'0 0.0
2018-Sep-16 00:28N 54°23' E 018°40'0 0.0
2018-Sep-16 00:01N 54°23' E 018°40'0 0.0
2018-Sep-15 23:58N 54°23' E 018°40'0 0.0
2018-Sep-15 23:28N 54°23' E 018°40'0 0.0
2018-Sep-15 23:01N 54°23' E 018°40'0 0.1
2018-Sep-15 22:58N 54°23' E 018°40'0 0.0
2018-Sep-15 22:28N 54°23' E 018°40'0 0.0
2018-Sep-15 22:01N 54°23' E 018°40'0 0.0
2018-Sep-15 21:58N 54°23' E 018°40'0 0.0
2018-Sep-15 21:28N 54°23' E 018°40'0 0.0
2018-Sep-15 21:01N 54°23' E 018°40'0 0.1
2018-Sep-15 20:58N 54°23' E 018°40'0 0.0
2018-Sep-15 20:28N 54°23' E 018°40'0 0.0
2018-Sep-15 20:01N 54°23' E 018°40'0 0.0
2018-Sep-15 19:58N 54°23' E 018°40'0 0.0
2018-Sep-15 19:28N 54°23' E 018°40'0 0.0
2018-Sep-15 19:01N 54°23' E 018°40'0 0.1
2018-Sep-15 18:58N 54°23' E 018°40'1 1.6
2018-Sep-15 18:30N 54°24' E 018°41'1 3.0
2018-Sep-15 18:03N 54°25' E 018°39'0 6.0
2018-Sep-15 18:00N 54°25' E 018°39'3 5.6
2018-Sep-15 17:30N 54°28' E 018°41'612.4
2018-Sep-15 17:03N 54°32' E 018°48'115.7
2018-Sep-15 17:00N 54°33' E 018°48'815.7
2018-Sep-15 16:31N 54°39' E 018°56'715.8
2018-Sep-15 16:04N 54°46' E 018°58'116.0
2018-Sep-15 16:01N 54°47' E 018°59'815.8
2018-Sep-15 15:30N 54°55' E 019°01'815.5
2018-Sep-15 15:01N 55°02' E 019°03'28515.4
2018-Sep-14 20:34N 59°46' E 019°41'316.0
2018-Sep-14 20:23N 59°49' E 019°38'516.4
2018-Sep-14 20:03N 59°53' E 019°31'117.7
2018-Sep-14 19:59N 59°54' E 019°29'816.2
2018-Sep-14 19:30N 59°60' E 019°19'716.4
2018-Sep-14 19:03N 60°05' E 019°09'116.6
2018-Sep-14 19:01N 60°06' E 019°08'815.8
2018-Sep-14 18:30N 60°12' E 018°59'715.9
2018-Sep-14 18:03N 60°19' E 018°60'116.0
2018-Sep-14 18:01N 60°20' E 018°60'914.5
2018-Sep-14 17:24N 60°29' E 018°59'6811.4
2018-Sep-14 11:27N 61°07' E 020°54'4 9.9
2018-Sep-14 11:02N 61°09' E 021°02'0 5.7
2018-Sep-14 11:00N 61°09' E 021°02'510.3
2018-Sep-14 10:30N 61°07' E 021°12'4 8.3
2018-Sep-14 10:03N 61°06' E 021°19'010.0
2018-Sep-14 10:00N 61°06' E 021°20'3 6.1
2018-Sep-14 09:29N 61°08' E 021°26'0 0.0
2018-Sep-14 09:00N 61°08' E 021°26'0 0.0
2018-Sep-14 08:30N 61°08' E 021°26'0 0.0
2018-Sep-14 07:59N 61°08' E 021°26'0 0.0
2018-Sep-14 07:28N 61°08' E 021°26'0 0.0
2018-Sep-14 06:59N 61°08' E 021°26'0 0.0
2018-Sep-14 06:29N 61°08' E 021°26'0 0.0
2018-Sep-14 06:02N 61°08' E 021°26'0 0.4
2018-Sep-14 05:59N 61°08' E 021°26'0 0.0
2018-Sep-14 05:27N 61°08' E 021°26'0 0.0
2018-Sep-14 05:02N 61°08' E 021°26'0 0.1
2018-Sep-14 04:56N 61°08' E 021°26'0 0.0
2018-Sep-14 04:26N 61°08' E 021°26'0 0.0
2018-Sep-14 04:02N 61°08' E 021°26'0 0.2
2018-Sep-14 03:59N 61°08' E 021°26'0 0.0
2018-Sep-14 03:22N 61°08' E 021°26'0 0.0
2018-Sep-14 03:01N 61°08' E 021°26'0 0.1
2018-Sep-14 02:57N 61°08' E 021°26'0 0.0
2018-Sep-14 02:30N 61°08' E 021°26'0 0.0
2018-Sep-14 02:01N 61°08' E 021°26'0 0.2
2018-Sep-14 01:59N 61°08' E 021°26'0 0.0
2018-Sep-14 01:28N 61°08' E 021°26'0 0.0
2018-Sep-14 01:03N 61°08' E 021°26'0 0.1
2018-Sep-14 01:00N 61°08' E 021°26'0 0.0
2018-Sep-14 00:29N 61°08' E 021°26'0 0.0
2018-Sep-14 00:02N 61°08' E 021°26'0 0.0
2018-Sep-13 23:58N 61°08' E 021°26'0 0.0
2018-Sep-13 23:28N 61°08' E 021°26'0 0.0
2018-Sep-13 22:52N 61°08' E 021°26'0 0.0
2018-Sep-13 22:21N 61°08' E 021°26'0 0.0
2018-Sep-13 22:02N 61°08' E 021°26'0 0.1
2018-Sep-13 21:59N 61°08' E 021°26'0 0.0
2018-Sep-13 21:25N 61°08' E 021°26'0 0.0
2018-Sep-13 21:02N 61°08' E 021°26'0 0.1
2018-Sep-13 20:56N 61°08' E 021°26'0 0.0
2018-Sep-13 20:28N 61°08' E 021°26'0 0.0
2018-Sep-13 20:01N 61°08' E 021°26'0 0.1
2018-Sep-13 19:58N 61°08' E 021°26'0 0.0
2018-Sep-13 19:26N 61°08' E 021°26'0 0.1
2018-Sep-13 19:00N 61°08' E 021°26'0 0.0
2018-Sep-13 18:29N 61°08' E 021°26'0 0.0
2018-Sep-13 18:02N 61°08' E 021°26'0 0.0
2018-Sep-13 17:59N 61°08' E 021°26'0 0.0
2018-Sep-13 17:28N 61°08' E 021°26'0 0.0
2018-Sep-13 17:01N 61°08' E 021°26'0 0.1
2018-Sep-13 16:58N 61°08' E 021°26'0 0.0
2018-Sep-13 16:29N 61°08' E 021°26'0 0.0
2018-Sep-13 16:01N 61°08' E 021°26'0 0.0
2018-Sep-13 15:55N 61°08' E 021°26'0 0.0
2018-Sep-13 15:30N 61°08' E 021°26'0 0.0
2018-Sep-13 15:02N 61°08' E 021°26'0 0.0
2018-Sep-13 14:50N 61°08' E 021°26'0 0.0
2018-Sep-13 14:00N 61°08' E 021°26'0 0.0
2018-Sep-13 13:28N 61°08' E 021°26'0 0.0
2018-Sep-13 13:01N 61°08' E 021°26'0 0.0
2018-Sep-13 12:52N 61°08' E 021°26'0 0.0
2018-Sep-13 12:28N 61°08' E 021°26'0 0.0
2018-Sep-13 12:01N 61°08' E 021°26'0 0.0
2018-Sep-13 11:49N 61°08' E 021°26'0 0.0
2018-Sep-13 11:29N 61°08' E 021°26'0 0.0
2018-Sep-13 11:01N 61°08' E 021°26'0 0.1
2018-Sep-13 10:46N 61°08' E 021°26'0 0.1
2018-Sep-13 10:28N 61°08' E 021°26'0 0.0
2018-Sep-13 10:01N 61°08' E 021°26'0 0.1
2018-Sep-13 09:58N 61°08' E 021°26'0 0.0
2018-Sep-13 09:28N 61°08' E 021°26'0 0.0
2018-Sep-13 09:03N 61°08' E 021°26'0 0.0
2018-Sep-13 08:58N 61°08' E 021°26'0 0.0
2018-Sep-13 08:28N 61°08' E 021°26'0 0.0
2018-Sep-13 08:02N 61°08' E 021°26'0 0.1
2018-Sep-13 07:56N 61°08' E 021°26'0 0.0
2018-Sep-13 07:27N 61°08' E 021°26'0 0.0
2018-Sep-13 06:58N 61°08' E 021°26'0 0.0
2018-Sep-13 06:25N 61°08' E 021°26'0 0.0
2018-Sep-13 05:58N 61°08' E 021°26'0 0.0
2018-Sep-13 05:19N 61°08' E 021°26'0 0.0
2018-Sep-13 04:58N 61°08' E 021°26'0 0.0
2018-Sep-13 04:30N 61°08' E 021°26'0 0.0
2018-Sep-13 04:00N 61°08' E 021°26'0 0.0
2018-Sep-13 03:30N 61°08' E 021°26'0 0.0
2018-Sep-13 03:02N 61°08' E 021°26'0 0.1
2018-Sep-13 03:00N 61°08' E 021°26'0 0.0
2018-Sep-13 02:28N 61°08' E 021°26'0 0.0
2018-Sep-13 02:01N 61°08' E 021°26'0 0.2
2018-Sep-13 01:59N 61°08' E 021°26'0 0.0
2018-Sep-13 01:26N 61°08' E 021°26'0 0.0
2018-Sep-13 00:57N 61°08' E 021°26'0 0.0
2018-Sep-13 00:29N 61°08' E 021°26'0 0.0
2018-Sep-13 00:01N 61°08' E 021°26'0 0.1
2018-Sep-12 23:57N 61°08' E 021°26'0 0.0
2018-Sep-12 23:30N 61°08' E 021°26'0 0.0
2018-Sep-12 23:03N 61°08' E 021°26'0 0.1
2018-Sep-12 23:00N 61°08' E 021°26'0 0.0
2018-Sep-12 22:30N 61°08' E 021°26'0 0.0
2018-Sep-12 22:03N 61°08' E 021°26'0 0.2
2018-Sep-12 22:00N 61°08' E 021°26'0 0.0
2018-Sep-12 21:24N 61°08' E 021°26'0 0.0
2018-Sep-12 21:03N 61°08' E 021°26'0 0.2
2018-Sep-12 21:01N 61°08' E 021°26'0 0.0
2018-Sep-12 20:30N 61°08' E 021°26'0 0.0
2018-Sep-12 20:03N 61°08' E 021°26'0 0.0
2018-Sep-12 20:00N 61°08' E 021°26'0 0.0
2018-Sep-12 19:30N 61°08' E 021°26'0 0.0
2018-Sep-12 19:03N 61°08' E 021°26'0 1.0
2018-Sep-12 19:00N 61°08' E 021°26'0 0.1
2018-Sep-12 18:29N 61°08' E 021°26'0 0.0
2018-Sep-12 18:03N 61°08' E 021°26'0 0.1
2018-Sep-12 17:58N 61°08' E 021°26'0 0.0
2018-Sep-12 17:28N 61°08' E 021°26'0 0.0
2018-Sep-12 17:02N 61°08' E 021°26'0 0.1
2018-Sep-12 16:59N 61°08' E 021°26'0 0.0
2018-Sep-12 16:25N 61°08' E 021°26'0 0.0
2018-Sep-12 16:02N 61°08' E 021°26'0 0.0
2018-Sep-12 15:56N 61°08' E 021°26'0 0.0
2018-Sep-12 15:23N 61°08' E 021°26'0 0.0
2018-Sep-12 14:58N 61°08' E 021°26'0 0.0
2018-Sep-12 13:59N 61°08' E 021°26'0 0.0
2018-Sep-12 13:28N 61°08' E 021°26'0 0.0
2018-Sep-12 13:01N 61°08' E 021°26'0 0.1
2018-Sep-12 12:55N 61°08' E 021°26'0 0.0
2018-Sep-12 12:27N 61°08' E 021°26'0 0.0
2018-Sep-12 12:02N 61°08' E 021°26'0 0.1
2018-Sep-12 11:59N 61°08' E 021°26'0 0.0
2018-Sep-12 11:28N 61°08' E 021°26'0 0.0
2018-Sep-12 11:01N 61°08' E 021°26'0 0.0
2018-Sep-12 10:58N 61°08' E 021°26'0 0.0
2018-Sep-12 10:28N 61°08' E 021°26'0 0.0
2018-Sep-12 10:00N 61°08' E 021°26'0 0.0
2018-Sep-12 09:27N 61°08' E 021°26'0 0.0
2018-Sep-12 09:03N 61°08' E 021°26'0 0.1
2018-Sep-12 09:00N 61°08' E 021°26'0 0.0
2018-Sep-12 08:30N 61°08' E 021°26'0 0.0
2018-Sep-12 08:01N 61°08' E 021°26'0 0.1
2018-Sep-12 07:58N 61°08' E 021°26'0 0.0
2018-Sep-12 07:27N 61°08' E 021°26'0 0.0
2018-Sep-12 07:01N 61°08' E 021°26'0 0.1
2018-Sep-12 06:53N 61°08' E 021°26'0 0.0
2018-Sep-12 06:25N 61°08' E 021°26'0 0.0
2018-Sep-12 06:01N 61°08' E 021°26'0 0.0
2018-Sep-12 05:58N 61°08' E 021°26'0 0.0
2018-Sep-12 05:24N 61°08' E 021°26'0 0.0
2018-Sep-12 05:03N 61°08' E 021°26'0 0.1
2018-Sep-12 05:00N 61°08' E 021°26'0 0.0
2018-Sep-12 04:30N 61°08' E 021°26'0 0.0
2018-Sep-12 04:03N 61°08' E 021°26'0 0.1
2018-Sep-12 04:00N 61°08' E 021°26'0 0.0
2018-Sep-12 03:30N 61°08' E 021°26'0 0.0
2018-Sep-12 03:03N 61°08' E 021°26'0 0.1
2018-Sep-12 03:00N 61°08' E 021°26'0 0.0
2018-Sep-12 02:30N 61°08' E 021°26'0 0.0
2018-Sep-12 02:03N 61°08' E 021°26'0 0.1
2018-Sep-12 02:00N 61°08' E 021°26'0 0.0
2018-Sep-12 01:30N 61°08' E 021°26'0 0.0
2018-Sep-12 01:03N 61°08' E 021°26'0 0.1
2018-Sep-12 01:00N 61°08' E 021°26'0 0.0
2018-Sep-12 00:30N 61°08' E 021°26'0 0.0
2018-Sep-12 00:03N 61°08' E 021°26'0 0.2
2018-Sep-12 00:00N 61°08' E 021°26'0 0.0
2018-Sep-11 23:30N 61°08' E 021°26'0 0.0
2018-Sep-11 23:03N 61°08' E 021°26'0 0.1
2018-Sep-11 23:00N 61°08' E 021°26'0 0.0
2018-Sep-11 22:30N 61°08' E 021°26'0 0.0
2018-Sep-11 22:03N 61°08' E 021°26'0 0.0
2018-Sep-11 22:00N 61°08' E 021°26'0 0.0
2018-Sep-11 21:30N 61°08' E 021°26'0 0.0
2018-Sep-11 21:00N 61°08' E 021°26'0 0.0
2018-Sep-11 20:27N 61°08' E 021°26'0 0.0
2018-Sep-11 20:03N 61°08' E 021°26'0 0.0
2018-Sep-11 20:00N 61°08' E 021°26'0 0.1
2018-Sep-11 19:30N 61°08' E 021°26'0 0.1
2018-Sep-11 19:03N 61°08' E 021°26'0 0.1
2018-Sep-11 19:00N 61°08' E 021°26'0 0.0
2018-Sep-11 18:30N 61°08' E 021°26'0 0.0
2018-Sep-11 18:03N 61°08' E 021°26'0 0.2
2018-Sep-11 18:00N 61°08' E 021°26'0 0.0
2018-Sep-11 17:30N 61°08' E 021°26'0 0.0
2018-Sep-11 17:02N 61°08' E 021°26'0 0.0
2018-Sep-11 16:59N 61°08' E 021°26'0 0.0
2018-Sep-11 16:29N 61°08' E 021°26'0 0.0
2018-Sep-11 16:02N 61°08' E 021°26'0 0.1
2018-Sep-11 15:56N 61°08' E 021°26'0 0.0
2018-Sep-11 15:26N 61°08' E 021°26'0 0.0
2018-Sep-11 15:02N 61°08' E 021°26'0 0.0
2018-Sep-11 14:59N 61°08' E 021°26'0 0.0
2018-Sep-11 14:29N 61°08' E 021°26'0 0.5
2018-Sep-11 14:00N 61°07' E 021°26'4 8.2
2018-Sep-11 13:31N 61°06' E 021°18'510.1
2018-Sep-11 13:01N 61°08' E 021°08'0 5.2
2018-Sep-11 13:00N 61°08' E 021°08'4 7.6
2018-Sep-11 12:30N 61°09' E 021°01'7014.2
2018-Sep-11 07:35N 60°29' E 019°04'117.3
2018-Sep-11 07:30N 60°28' E 019°03'817.3
2018-Sep-11 07:03N 60°20' E 019°01'117.2
2018-Sep-11 07:00N 60°19' E 019°01'816.8
2018-Sep-11 06:30N 60°11' E 019°07'816.9
2018-Sep-11 06:03N 60°06' E 019°17'117.0
2018-Sep-11 06:00N 60°05' E 019°18'917.1
2018-Sep-11 05:30N 59°58' E 019°29'817.2
2018-Sep-11 05:03N 59°52' E 019°38'117.2
2018-Sep-11 05:00N 59°52' E 019°39'917.0
2018-Sep-11 04:30N 59°45' E 019°50'816.8
2018-Sep-11 04:03N 59°39' E 019°60'116.6
2018-Sep-11 04:00N 59°39' E 020°01'815.5
2018-Sep-11 03:30N 59°32' E 020°10'716.3
2018-Sep-11 03:03N 59°25' E 020°05'116.8
2018-Sep-11 03:00N 59°25' E 020°05'1016.9
2018-Sep-11 02:25N 59°16' E 019°54'617.1
2018-Sep-11 02:03N 59°11' E 019°48'117.3
2018-Sep-11 02:00N 59°10' E 019°47'917.3
2018-Sep-11 01:30N 59°03' E 019°38'13817.2
2018-Sep-10 17:28N 57°03' E 017°30'2917.2
2018-Sep-10 15:46N 56°36' E 017°11'517.3
2018-Sep-10 15:30N 56°31' E 017°08'817.3
2018-Sep-10 15:02N 56°24' E 017°03'017.4
2018-Sep-10 15:00N 56°23' E 017°03'917.3
2018-Sep-10 14:30N 56°15' E 016°57'917.3
2018-Sep-10 14:00N 56°07' E 016°51'816.9
2018-Sep-10 13:30N 56°01' E 016°40'817.4
2018-Sep-10 13:03N 55°57' E 016°28'117.6
2018-Sep-10 13:00N 55°57' E 016°27'917.7
2018-Sep-10 12:30N 55°53' E 016°13'817.8
2018-Sep-10 12:03N 55°49' E 016°01'117.6
2018-Sep-10 12:00N 55°48' E 015°59'917.6
2018-Sep-10 11:30N 55°44' E 015°46'817.6
2018-Sep-10 11:03N 55°40' E 015°34'117.4
2018-Sep-10 11:00N 55°39' E 015°32'917.5
2018-Sep-10 10:30N 55°35' E 015°19'  
Track history (hours):
 
Tides and Currents Weather Stations Pressure Air Temp Water Temp Dewpoint Dewpoint Depression Visibility Wind Speed Wind Dir Waves Ship Positions

Slotergracht

Last reported at 2018-Sep-20 10:14 UTC. Time now 2018-Sep-20 13:28 UTC.
Position N 54°47' E 013°26'.

Length 168 m; beam 25 m.

Type: Cargo ship. MMSI: 246456000.

Date/timePositionNaut miles runAvg speedWind from/ knotsBaromVisibWave heightAir tempDewpointWater temp
2018-Sep-20 10:14N 54°47' E 013°26'815.3
2018-Sep-20 09:44N 54°45' E 013°39'815.6
2018-Sep-20 09:14N 54°43' E 013°52'315.8
2018-Sep-20 09:03N 54°42' E 013°57'115.6
2018-Sep-20 09:00N 54°42' E 013°58'815.6
2018-Sep-20 08:30N 54°40' E 014°11'715.4
2018-Sep-20 08:01N 54°38' E 014°24'015.2
2018-Sep-20 08:00N 54°38' E 014°24'815.3
2018-Sep-20 07:30N 54°39' E 014°37'715.2
2018-Sep-20 07:03N 54°40' E 014°49'115.2
2018-Sep-20 06:59N 54°40' E 014°51'715.3
2018-Sep-20 06:30N 54°41' E 015°03'715.3
2018-Sep-20 06:04N 54°42' E 015°15'115.1
2018-Sep-20 06:00N 54°43' E 015°16'815.3
2018-Sep-20 05:30N 54°44' E 015°29'715.8
2018-Sep-20 05:03N 54°45' E 015°42'115.6
2018-Sep-20 05:00N 54°45' E 015°43'1015.8
2018-Sep-20 04:21N 54°47' E 016°01'515.9
2018-Sep-20 04:03N 54°48' E 016°09'115.8
2018-Sep-20 04:00N 54°48' E 016°10'915.6
2018-Sep-20 03:27N 54°49' E 016°25'815.8
2018-Sep-20 02:57N 54°50' E 016°39'2115.9
2018-Sep-20 01:39N 54°55' E 017°14'712.8
2018-Sep-20 01:07N 54°56' E 017°25'310.8
2018-Sep-20 00:53N 54°56' E 017°30'616.1
2018-Sep-20 00:30N 54°57' E 017°40'716.2
2018-Sep-20 00:03N 54°58' E 017°53'115.7
2018-Sep-20 00:00N 54°58' E 017°54'510.9
2018-Sep-19 23:31N 54°58' E 018°03'714.9
2018-Sep-19 23:04N 54°58' E 018°15'115.2
2018-Sep-19 23:01N 54°58' E 018°16'714.4
2018-Sep-19 22:30N 54°58' E 018°29'4 9.8
2018-Sep-19 22:03N 54°56' E 018°36'0 7.9
2018-Sep-19 22:00N 54°56' E 018°37'713.3
2018-Sep-19 21:30N 54°52' E 018°46'612.9
2018-Sep-19 21:03N 54°48' E 018°54'111.3
2018-Sep-19 21:00N 54°48' E 018°54'4 7.9
2018-Sep-19 20:30N 54°44' E 018°58'511.6
2018-Sep-19 20:03N 54°39' E 018°56'112.2
2018-Sep-19 20:00N 54°39' E 018°56'611.8
2018-Sep-19 19:30N 54°33' E 018°51'3 7.6
2018-Sep-19 19:03N 54°32' E 018°46'0 6.6
2018-Sep-19 19:00N 54°32' E 018°45'4 8.1
2018-Sep-19 18:30N 54°32' E 018°38'4 8.2
2018-Sep-19 18:03N 54°32' E 018°32'0 5.8
2018-Sep-19 18:00N 54°32' E 018°31'1 1.4
2018-Sep-19 17:30N 54°33' E 018°30'0 0.0
2018-Sep-19 17:03N 54°33' E 018°30'0 0.0
2018-Sep-19 17:00N 54°33' E 018°30'0 0.0
2018-Sep-19 16:30N 54°33' E 018°30'0 0.1
2018-Sep-19 16:03N 54°33' E 018°30'0 0.2
2018-Sep-19 16:00N 54°33' E 018°30'0 0.0
2018-Sep-19 15:30N 54°33' E 018°30'0 0.0
2018-Sep-19 15:03N 54°33' E 018°30'0 0.1
2018-Sep-19 15:00N 54°33' E 018°30'0 0.0
2018-Sep-19 14:30N 54°33' E 018°30'0 0.0
2018-Sep-19 13:30N 54°33' E 018°30'0 0.0
2018-Sep-19 13:03N 54°33' E 018°30'0 0.1
2018-Sep-19 13:00N 54°33' E 018°30'0 0.0
2018-Sep-19 12:30N 54°33' E 018°30'0 0.0
2018-Sep-19 12:03N 54°33' E 018°30'0 0.1
2018-Sep-19 12:00N 54°33' E 018°30'0 0.0
2018-Sep-19 11:30N 54°33' E 018°30'0 0.0
2018-Sep-19 11:03N 54°33' E 018°30'0 0.1
2018-Sep-19 11:00N 54°33' E 018°30'0 0.0
2018-Sep-19 10:30N 54°33' E 018°30'0 0.0
2018-Sep-19 10:03N 54°33' E 018°30'0 0.1
2018-Sep-19 10:00N 54°33' E 018°30'0 0.0
2018-Sep-19 09:30N 54°33' E 018°30'0 0.0
2018-Sep-19 09:03N 54°33' E 018°30'0 0.0
2018-Sep-19 09:00N 54°33' E 018°30'0 0.0
2018-Sep-19 08:30N 54°33' E 018°30'0 0.0
2018-Sep-19 08:03N 54°33' E 018°30'0 0.1
2018-Sep-19 08:00N 54°33' E 018°30'0 0.0
2018-Sep-19 07:30N 54°33' E 018°30'0 0.0
2018-Sep-19 07:03N 54°33' E 018°30'0 0.1
2018-Sep-19 07:00N 54°33' E 018°30'0 0.0
2018-Sep-19 06:30N 54°33' E 018°30'0 0.0
2018-Sep-19 06:03N 54°33' E 018°30'0 0.1
2018-Sep-19 06:00N 54°33' E 018°30'0 0.0
2018-Sep-19 05:30N 54°33' E 018°30'0 0.0
2018-Sep-19 05:03N 54°33' E 018°30'0 0.1
2018-Sep-19 05:00N 54°33' E 018°30'0 0.0
2018-Sep-19 04:30N 54°33' E 018°30'0 0.1
2018-Sep-19 04:03N 54°33' E 018°30'0 0.3
2018-Sep-19 04:00N 54°33' E 018°30'0 0.0
2018-Sep-19 03:30N 54°33' E 018°30'0 0.0
2018-Sep-19 03:03N 54°33' E 018°30'0 0.1
2018-Sep-19 03:00N 54°33' E 018°30'0 0.0
2018-Sep-19 02:30N 54°33' E 018°30'0 0.1
2018-Sep-19 02:03N 54°33' E 018°30'0 0.5
2018-Sep-19 02:00N 54°33' E 018°30'0 0.0
2018-Sep-19 01:30N 54°33' E 018°30'0 0.0
2018-Sep-19 01:03N 54°33' E 018°30'0 0.1
2018-Sep-19 01:00N 54°33' E 018°30'0 0.0
2018-Sep-19 00:30N 54°33' E 018°30'0 0.0
2018-Sep-19 00:03N 54°33' E 018°30'0 0.0
2018-Sep-19 00:00N 54°33' E 018°30'0 0.0
2018-Sep-18 23:30N 54°33' E 018°30'0 0.0
2018-Sep-18 23:03N 54°33' E 018°30'0 0.1
2018-Sep-18 23:00N 54°33' E 018°30'0 0.0
2018-Sep-18 22:30N 54°33' E 018°30'0 0.0
2018-Sep-18 22:03N 54°33' E 018°30'0 0.2
2018-Sep-18 22:00N 54°33' E 018°30'0 0.0
2018-Sep-18 21:30N 54°33' E 018°30'0 0.0
2018-Sep-18 21:03N 54°33' E 018°30'0 0.1
2018-Sep-18 21:00N 54°33' E 018°30'0 0.0
2018-Sep-18 20:30N 54°33' E 018°30'0 0.0
2018-Sep-18 20:03N 54°33' E 018°30'0 0.0
2018-Sep-18 20:00N 54°33' E 018°30'0 0.0
2018-Sep-18 19:30N 54°33' E 018°30'0 0.0
2018-Sep-18 19:03N 54°33' E 018°30'0 0.2
2018-Sep-18 19:00N 54°33' E 018°30'0 0.0
2018-Sep-18 18:30N 54°33' E 018°30'0 0.0
2018-Sep-18 18:03N 54°33' E 018°30'0 0.1
2018-Sep-18 18:00N 54°33' E 018°30'0 0.0
2018-Sep-18 17:30N 54°33' E 018°30'0 0.0
2018-Sep-18 17:03N 54°33' E 018°30'0 0.1
2018-Sep-18 17:00N 54°33' E 018°30'0 0.0
2018-Sep-18 16:30N 54°33' E 018°30'0 0.0
2018-Sep-18 16:03N 54°33' E 018°30'0 0.1
2018-Sep-18 16:00N 54°33' E 018°30'0 0.0
2018-Sep-18 15:30N 54°33' E 018°30'0 0.0
2018-Sep-18 15:03N 54°33' E 018°30'0 0.1
2018-Sep-18 15:00N 54°33' E 018°30'0 0.0
2018-Sep-18 14:02N 54°33' E 018°30'0 0.0
2018-Sep-18 13:59N 54°33' E 018°30'0 0.0
2018-Sep-18 13:29N 54°33' E 018°30'0 0.0
2018-Sep-18 13:02N 54°33' E 018°30'0 0.0
2018-Sep-18 12:59N 54°33' E 018°30'0 0.0
2018-Sep-18 12:29N 54°33' E 018°30'0 0.0
2018-Sep-18 12:02N 54°33' E 018°30'0 0.1
2018-Sep-18 11:59N 54°33' E 018°30'0 0.0
2018-Sep-18 11:29N 54°33' E 018°30'0 0.0
2018-Sep-18 11:02N 54°33' E 018°30'0 0.1
2018-Sep-18 10:59N 54°33' E 018°30'0 0.0
2018-Sep-18 10:29N 54°33' E 018°30'0 0.0
2018-Sep-18 10:02N 54°33' E 018°30'0 0.1
2018-Sep-18 09:59N 54°33' E 018°30'0 0.0
2018-Sep-18 09:29N 54°33' E 018°30'0 0.0
2018-Sep-18 09:02N 54°33' E 018°30'0 0.1
2018-Sep-18 08:59N 54°33' E 018°30'0 0.0
2018-Sep-18 08:29N 54°33' E 018°30'0 0.0
2018-Sep-18 08:02N 54°33' E 018°30'0 0.3
2018-Sep-18 07:59N 54°33' E 018°30'0 0.0
2018-Sep-18 07:29N 54°33' E 018°30'0 0.0
2018-Sep-18 07:02N 54°33' E 018°30'0 0.1
2018-Sep-18 06:59N 54°33' E 018°30'0 0.0
2018-Sep-18 06:29N 54°33' E 018°30'0 0.0
2018-Sep-18 06:02N 54°33' E 018°30'0 0.0
2018-Sep-18 05:59N 54°33' E 018°30'0 0.0
2018-Sep-18 05:29N 54°33' E 018°30'0 0.0
2018-Sep-18 05:02N 54°33' E 018°30'0 0.1
2018-Sep-18 04:59N 54°33' E 018°30'0 0.0
2018-Sep-18 04:29N 54°33' E 018°30'0 0.0
2018-Sep-18 04:02N 54°33' E 018°30'0 0.1
2018-Sep-18 03:59N 54°33' E 018°30'0 0.0
2018-Sep-18 03:29N 54°33' E 018°30'0 0.0
2018-Sep-18 03:02N 54°33' E 018°30'0 0.0
2018-Sep-18 02:59N 54°33' E 018°30'0 0.0
2018-Sep-18 02:29N 54°33' E 018°30'0 0.0
2018-Sep-18 02:02N 54°33' E 018°30'0 0.1
2018-Sep-18 01:59N 54°33' E 018°30'0 0.0
2018-Sep-18 01:29N 54°33' E 018°30'0 0.0
2018-Sep-18 01:02N 54°33' E 018°30'0 0.0
2018-Sep-18 00:59N 54°33' E 018°30'0 0.0
2018-Sep-18 00:29N 54°33' E 018°30'0 0.0
2018-Sep-18 00:02N 54°33' E 018°30'0 0.1
2018-Sep-17 23:59N 54°33' E 018°30'0 0.0
2018-Sep-17 23:29N 54°33' E 018°30'0 0.0
2018-Sep-17 23:02N 54°33' E 018°30'0 0.1
2018-Sep-17 22:59N 54°33' E 018°30'0 0.0
2018-Sep-17 22:27N 54°33' E 018°30'0 0.6
2018-Sep-17 22:03N 54°33' E 018°31'0 2.7
2018-Sep-17 22:00N 54°33' E 018°31'3 6.3
2018-Sep-17 21:30N 54°32' E 018°36'2 3.4
2018-Sep-17 21:03N 54°31' E 018°39'0 0.5
2018-Sep-17 21:00N 54°31' E 018°39'0 0.1
2018-Sep-17 20:30N 54°31' E 018°39'0 0.1
2018-Sep-17 20:03N 54°31' E 018°39'0 0.0
2018-Sep-17 20:00N 54°31' E 018°39'0 0.0
2018-Sep-17 19:30N 54°31' E 018°39'0 0.0
2018-Sep-17 19:03N 54°31' E 018°39'0 0.0
2018-Sep-17 19:00N 54°31' E 018°39'0 0.0
2018-Sep-17 18:30N 54°31' E 018°39'0 0.0
2018-Sep-17 18:03N 54°31' E 018°39'0 0.1
2018-Sep-17 18:00N 54°31' E 018°39'0 0.0
2018-Sep-17 17:30N 54°31' E 018°39'0 0.0
2018-Sep-17 17:03N 54°31' E 018°39'0 0.1
2018-Sep-17 17:00N 54°31' E 018°39'0 0.0
2018-Sep-17 16:30N 54°31' E 018°39'0 0.0
2018-Sep-17 16:03N 54°31' E 018°39'0 0.1
2018-Sep-17 16:00N 54°31' E 018°39'0 0.0
2018-Sep-17 15:30N 54°31' E 018°39'0 0.0
2018-Sep-17 15:03N 54°31' E 018°39'0 0.1
2018-Sep-17 15:00N 54°31' E 018°39'0 0.0
2018-Sep-17 14:30N 54°31' E 018°39'0 0.1
2018-Sep-17 14:00N 54°31' E 018°39'0 0.0
2018-Sep-17 13:30N 54°31' E 018°39'0 0.1
2018-Sep-17 13:03N 54°31' E 018°39'0 0.1
2018-Sep-17 13:00N 54°31' E 018°39'0 0.0
2018-Sep-17 12:30N 54°31' E 018°39'0 0.0
2018-Sep-17 12:03N 54°31' E 018°39'0 0.0
2018-Sep-17 12:00N 54°31' E 018°39'0 0.0
2018-Sep-17 11:30N 54°31' E 018°39'0 0.0
2018-Sep-17 11:03N 54°31' E 018°39'0 0.0
2018-Sep-17 11:00N 54°31' E 018°39'0 0.0
2018-Sep-17 10:30N 54°31' E 018°39'0 0.1
2018-Sep-17 10:03N 54°31' E 018°39'0 0.1
2018-Sep-17 10:00N 54°31' E 018°39'0 0.0
2018-Sep-17 09:30N 54°31' E 018°39'0 0.0
2018-Sep-17 09:03N 54°31' E 018°39'0 0.3
2018-Sep-17 09:00N 54°31' E 018°39'0 0.1
2018-Sep-17 08:30N 54°32' E 018°39'0 0.0
2018-Sep-17 08:03N 54°32' E 018°39'0 0.0
2018-Sep-17 08:00N 54°32' E 018°39'0 0.0
2018-Sep-17 07:30N 54°32' E 018°39'0 0.0
2018-Sep-17 07:03N 54°32' E 018°39'0 0.1
2018-Sep-17 07:00N 54°32' E 018°39'0 0.1
2018-Sep-17 06:30N 54°32' E 018°39'0 0.1
2018-Sep-17 06:03N 54°32' E 018°39'0 0.0
2018-Sep-17 06:00N 54°32' E 018°39'0 0.1
2018-Sep-17 05:30N 54°32' E 018°39'0 0.0
2018-Sep-17 05:03N 54°32' E 018°39'0 0.1
2018-Sep-17 05:00N 54°32' E 018°39'0 0.0
2018-Sep-17 04:30N 54°32' E 018°39'0 0.0
2018-Sep-17 04:03N 54°32' E 018°39'0 0.1
2018-Sep-17 04:00N 54°32' E 018°39'0 0.0
2018-Sep-17 03:30N 54°32' E 018°39'0 0.0
2018-Sep-17 03:03N 54°32' E 018°39'0 0.1
2018-Sep-17 03:00N 54°32' E 018°39'0 0.0
2018-Sep-17 02:30N 54°32' E 018°39'0 0.0
2018-Sep-17 02:03N 54°32' E 018°39'0 0.1
2018-Sep-17 02:00N 54°32' E 018°39'0 0.0
2018-Sep-17 01:30N 54°32' E 018°39'0 0.0
2018-Sep-17 01:03N 54°32' E 018°39'0 0.1
2018-Sep-17 01:00N 54°32' E 018°39'0 0.1
2018-Sep-17 00:30N 54°32' E 018°39'0 0.0
2018-Sep-17 00:03N 54°32' E 018°39'0 0.1
2018-Sep-17 00:00N 54°32' E 018°39'0 0.0
2018-Sep-16 23:30N 54°32' E 018°39'0 0.0
2018-Sep-16 23:03N 54°32' E 018°39'0 0.0
2018-Sep-16 23:00N 54°32' E 018°39'0 0.0
2018-Sep-16 22:30N 54°32' E 018°39'0 0.0
2018-Sep-16 22:03N 54°32' E 018°39'0 0.1
2018-Sep-16 22:00N 54°32' E 018°39'0 0.0
2018-Sep-16 21:30N 54°32' E 018°39'0 0.0
2018-Sep-16 21:03N 54°32' E 018°39'0 0.1
2018-Sep-16 21:00N 54°32' E 018°39'0 0.0
2018-Sep-16 20:30N 54°32' E 018°39'0 0.0
2018-Sep-16 20:03N 54°32' E 018°39'0 0.1
2018-Sep-16 20:00N 54°32' E 018°39'0 0.0
2018-Sep-16 19:30N 54°32' E 018°39'0 0.1
2018-Sep-16 19:03N 54°32' E 018°39'0 0.5
2018-Sep-16 19:00N 54°32' E 018°39'3 7.0
2018-Sep-16 18:31N 54°32' E 018°44'3 6.8
2018-Sep-16 18:03N 54°29' E 018°44'116.1
2018-Sep-16 18:00N 54°29' E 018°43'4 8.7
2018-Sep-16 17:31N 54°25' E 018°39'1 3.1
2018-Sep-16 17:03N 54°24' E 018°40'0 3.5
2018-Sep-16 17:01N 54°24' E 018°40'0 1.0
2018-Sep-16 16:30N 54°23' E 018°40'0 0.0
2018-Sep-16 16:01N 54°23' E 018°40'0 0.0
2018-Sep-16 15:58N 54°23' E 018°40'0 0.0
2018-Sep-16 15:28N 54°23' E 018°40'0 0.0
2018-Sep-16 15:01N 54°23' E 018°40'0 0.1
2018-Sep-16 14:58N 54°23' E 018°40'0 0.0
2018-Sep-16 14:01N 54°23' E 018°40'0 0.0
2018-Sep-16 13:28N 54°23' E 018°40'0 0.0
2018-Sep-16 13:01N 54°23' E 018°40'0 0.0
2018-Sep-16 12:58N 54°23' E 018°40'0 0.0
2018-Sep-16 12:28N 54°23' E 018°40'0 0.0
2018-Sep-16 12:01N 54°23' E 018°40'0 0.1
2018-Sep-16 11:58N 54°23' E 018°40'0 0.0
2018-Sep-16 11:28N 54°23' E 018°40'0 0.0
2018-Sep-16 11:01N 54°23' E 018°40'0 0.0
2018-Sep-16 10:58N 54°23' E 018°40'0 0.0
2018-Sep-16 10:28N 54°23' E 018°40'0 0.0
2018-Sep-16 10:01N 54°23' E 018°40'0 0.1
2018-Sep-16 09:58N 54°23' E 018°40'0 0.0
2018-Sep-16 09:28N 54°23' E 018°40'0 0.0
2018-Sep-16 09:01N 54°23' E 018°40'0 0.0
2018-Sep-16 08:58N 54°23' E 018°40'0 0.0
2018-Sep-16 08:28N 54°23' E 018°40'0 0.0
2018-Sep-16 08:01N 54°23' E 018°40'0 0.1
2018-Sep-16 07:58N 54°23' E 018°40'0 0.0
2018-Sep-16 07:25N 54°23' E 018°40'0 0.0
2018-Sep-16 07:01N 54°23' E 018°40'0 0.0
2018-Sep-16 06:58N 54°23' E 018°40'0 0.0
2018-Sep-16 06:28N 54°23' E 018°40'0 0.0
2018-Sep-16 06:01N 54°23' E 018°40'0 0.0
2018-Sep-16 05:58N 54°23' E 018°40'0 0.0
2018-Sep-16 05:28N 54°23' E 018°40'0 0.0
2018-Sep-16 05:01N 54°23' E 018°40'0 0.0
2018-Sep-16 04:58N 54°23' E 018°40'0 0.0
2018-Sep-16 04:28N 54°23' E 018°40'0 0.0
2018-Sep-16 04:01N 54°23' E 018°40'0 0.2
2018-Sep-16 03:58N 54°23' E 018°40'0 0.0
2018-Sep-16 03:28N 54°23' E 018°40'0 0.0
2018-Sep-16 03:01N 54°23' E 018°40'0 0.0
2018-Sep-16 02:58N 54°23' E 018°40'0 0.0
2018-Sep-16 02:28N 54°23' E 018°40'0 0.0
2018-Sep-16 02:01N 54°23' E 018°40'0 0.1
2018-Sep-16 01:58N 54°23' E 018°40'0 0.0
2018-Sep-16 01:28N 54°23' E 018°40'0 0.0
2018-Sep-16 01:01N 54°23' E 018°40'0 0.1
2018-Sep-16 00:58N 54°23' E 018°40'0 0.0
2018-Sep-16 00:28N 54°23' E 018°40'0 0.0
2018-Sep-16 00:01N 54°23' E 018°40'0 0.0
2018-Sep-15 23:58N 54°23' E 018°40'0 0.0
2018-Sep-15 23:28N 54°23' E 018°40'0 0.0
2018-Sep-15 23:01N 54°23' E 018°40'0 0.1
2018-Sep-15 22:58N 54°23' E 018°40'0 0.0
2018-Sep-15 22:28N 54°23' E 018°40'0 0.0
2018-Sep-15 22:01N 54°23' E 018°40'0 0.0
2018-Sep-15 21:58N 54°23' E 018°40'0 0.0
2018-Sep-15 21:28N 54°23' E 018°40'0 0.0
2018-Sep-15 21:01N 54°23' E 018°40'0 0.1
2018-Sep-15 20:58N 54°23' E 018°40'0 0.0
2018-Sep-15 20:28N 54°23' E 018°40'0 0.0
2018-Sep-15 20:01N 54°23' E 018°40'0 0.0
2018-Sep-15 19:58N 54°23' E 018°40'0 0.0
2018-Sep-15 19:28N 54°23' E 018°40'0 0.0
2018-Sep-15 19:01N 54°23' E 018°40'0 0.1
2018-Sep-15 18:58N 54°23' E 018°40'1 1.6
2018-Sep-15 18:30N 54°24' E 018°41'1 3.0
2018-Sep-15 18:03N 54°25' E 018°39'0 6.0
2018-Sep-15 18:00N 54°25' E 018°39'3 5.6
2018-Sep-15 17:30N 54°28' E 018°41'612.4
2018-Sep-15 17:03N 54°32' E 018°48'115.7
2018-Sep-15 17:00N 54°33' E 018°48'815.7
2018-Sep-15 16:31N 54°39' E 018°56'715.8
2018-Sep-15 16:04N 54°46' E 018°58'116.0
2018-Sep-15 16:01N 54°47' E 018°59'815.8
2018-Sep-15 15:30N 54°55' E 019°01'815.5
2018-Sep-15 15:01N 55°02' E 019°03'28515.4
2018-Sep-14 20:34N 59°46' E 019°41'316.0
2018-Sep-14 20:23N 59°49' E 019°38'516.4
2018-Sep-14 20:03N 59°53' E 019°31'117.7
2018-Sep-14 19:59N 59°54' E 019°29'816.2
2018-Sep-14 19:30N 59°60' E 019°19'716.4
2018-Sep-14 19:03N 60°05' E 019°09'116.6
2018-Sep-14 19:01N 60°06' E 019°08'815.8
2018-Sep-14 18:30N 60°12' E 018°59'715.9
2018-Sep-14 18:03N 60°19' E 018°60'116.0
2018-Sep-14 18:01N 60°20' E 018°60'914.5
2018-Sep-14 17:24N 60°29' E 018°59'6811.4
2018-Sep-14 11:27N 61°07' E 020°54'4 9.9
2018-Sep-14 11:02N 61°09' E 021°02'0 5.7
2018-Sep-14 11:00N 61°09' E 021°02'510.3
2018-Sep-14 10:30N 61°07' E 021°12'4 8.3
2018-Sep-14 10:03N 61°06' E 021°19'010.0
2018-Sep-14 10:00N 61°06' E 021°20'3 6.1
2018-Sep-14 09:29N 61°08' E 021°26'0 0.0
2018-Sep-14 09:00N 61°08' E 021°26'0 0.0
2018-Sep-14 08:30N 61°08' E 021°26'0 0.0
2018-Sep-14 07:59N 61°08' E 021°26'0 0.0
2018-Sep-14 07:28N 61°08' E 021°26'0 0.0
2018-Sep-14 06:59N 61°08' E 021°26'0 0.0
2018-Sep-14 06:29N 61°08' E 021°26'0 0.0
2018-Sep-14 06:02N 61°08' E 021°26'0 0.4
2018-Sep-14 05:59N 61°08' E 021°26'0 0.0
2018-Sep-14 05:27N 61°08' E 021°26'0 0.0
2018-Sep-14 05:02N 61°08' E 021°26'0 0.1
2018-Sep-14 04:56N 61°08' E 021°26'0 0.0
2018-Sep-14 04:26N 61°08' E 021°26'0 0.0
2018-Sep-14 04:02N 61°08' E 021°26'0 0.2
2018-Sep-14 03:59N 61°08' E 021°26'0 0.0
2018-Sep-14 03:22N 61°08' E 021°26'0 0.0
2018-Sep-14 03:01N 61°08' E 021°26'0 0.1
2018-Sep-14 02:57N 61°08' E 021°26'0 0.0
2018-Sep-14 02:30N 61°08' E 021°26'0 0.0
2018-Sep-14 02:01N 61°08' E 021°26'0 0.2
2018-Sep-14 01:59N 61°08' E 021°26'0 0.0
2018-Sep-14 01:28N 61°08' E 021°26'0 0.0
2018-Sep-14 01:03N 61°08' E 021°26'0 0.1
2018-Sep-14 01:00N 61°08' E 021°26'0 0.0
2018-Sep-14 00:29N 61°08' E 021°26'0 0.0
2018-Sep-14 00:02N 61°08' E 021°26'0 0.0
2018-Sep-13 23:58N 61°08' E 021°26'0 0.0
2018-Sep-13 23:28N 61°08' E 021°26'0 0.0
2018-Sep-13 22:52N 61°08' E 021°26'0 0.0
2018-Sep-13 22:21N 61°08' E 021°26'0 0.0
2018-Sep-13 22:02N 61°08' E 021°26'0 0.1
2018-Sep-13 21:59N 61°08' E 021°26'0 0.0
2018-Sep-13 21:25N 61°08' E 021°26'0 0.0
2018-Sep-13 21:02N 61°08' E 021°26'0 0.1
2018-Sep-13 20:56N 61°08' E 021°26'0 0.0
2018-Sep-13 20:28N 61°08' E 021°26'0 0.0
2018-Sep-13 20:01N 61°08' E 021°26'0 0.1
2018-Sep-13 19:58N 61°08' E 021°26'0 0.0
2018-Sep-13 19:26N 61°08' E 021°26'0 0.1
2018-Sep-13 19:00N 61°08' E 021°26'0 0.0
2018-Sep-13 18:29N 61°08' E 021°26'0 0.0
2018-Sep-13 18:02N 61°08' E 021°26'0 0.0
2018-Sep-13 17:59N 61°08' E 021°26'0 0.0
2018-Sep-13 17:28N 61°08' E 021°26'0 0.0
2018-Sep-13 17:01N 61°08' E 021°26'0 0.1
2018-Sep-13 16:58N 61°08' E 021°26'0 0.0
2018-Sep-13 16:29N 61°08' E 021°26'0 0.0
2018-Sep-13 16:01N 61°08' E 021°26'0 0.0
2018-Sep-13 15:55N 61°08' E 021°26'0 0.0
2018-Sep-13 15:30N 61°08' E 021°26'0 0.0
2018-Sep-13 15:02N 61°08' E 021°26'0 0.0
2018-Sep-13 14:50N 61°08' E 021°26'0 0.0
2018-Sep-13 14:00N 61°08' E 021°26'0 0.0
2018-Sep-13 13:28N 61°08' E 021°26'0 0.0
2018-Sep-13 13:01N 61°08' E 021°26'0 0.0
2018-Sep-13 12:52N 61°08' E 021°26'0 0.0
2018-Sep-13 12:28N 61°08' E 021°26'0 0.0
2018-Sep-13 12:01N 61°08' E 021°26'0 0.0
2018-Sep-13 11:49N 61°08' E 021°26'0 0.0
2018-Sep-13 11:29N 61°08' E 021°26'0 0.0
2018-Sep-13 11:01N 61°08' E 021°26'0 0.1
2018-Sep-13 10:46N 61°08' E 021°26'0 0.1
2018-Sep-13 10:28N 61°08' E 021°26'0 0.0
2018-Sep-13 10:01N 61°08' E 021°26'0 0.1
2018-Sep-13 09:58N 61°08' E 021°26'0 0.0
2018-Sep-13 09:28N 61°08' E 021°26'0 0.0
2018-Sep-13 09:03N 61°08' E 021°26'0 0.0
2018-Sep-13 08:58N 61°08' E 021°26'0 0.0
2018-Sep-13 08:28N 61°08' E 021°26'0 0.0
2018-Sep-13 08:02N 61°08' E 021°26'0 0.1
2018-Sep-13 07:56N 61°08' E 021°26'0 0.0
2018-Sep-13 07:27N 61°08' E 021°26'0 0.0
2018-Sep-13 06:58N 61°08' E 021°26'0 0.0
2018-Sep-13 06:25N 61°08' E 021°26'0 0.0
2018-Sep-13 05:58N 61°08' E 021°26'0 0.0
2018-Sep-13 05:19N 61°08' E 021°26'0 0.0
2018-Sep-13 04:58N 61°08' E 021°26'0 0.0
2018-Sep-13 04:30N 61°08' E 021°26'0 0.0
2018-Sep-13 04:00N 61°08' E 021°26'0 0.0
2018-Sep-13 03:30N 61°08' E 021°26'0 0.0
2018-Sep-13 03:02N 61°08' E 021°26'0 0.1
2018-Sep-13 03:00N 61°08' E 021°26'0 0.0
2018-Sep-13 02:28N 61°08' E 021°26'0 0.0
2018-Sep-13 02:01N 61°08' E 021°26'0 0.2
2018-Sep-13 01:59N 61°08' E 021°26'0 0.0
2018-Sep-13 01:26N 61°08' E 021°26'0 0.0
2018-Sep-13 00:57N 61°08' E 021°26'0 0.0
2018-Sep-13 00:29N 61°08' E 021°26'0 0.0
2018-Sep-13 00:01N 61°08' E 021°26'0 0.1
2018-Sep-12 23:57N 61°08' E 021°26'0 0.0
2018-Sep-12 23:30N 61°08' E 021°26'0 0.0
2018-Sep-12 23:03N 61°08' E 021°26'0 0.1
2018-Sep-12 23:00N 61°08' E 021°26'0 0.0
2018-Sep-12 22:30N 61°08' E 021°26'0 0.0
2018-Sep-12 22:03N 61°08' E 021°26'0 0.2
2018-Sep-12 22:00N 61°08' E 021°26'0 0.0
2018-Sep-12 21:24N 61°08' E 021°26'0 0.0
2018-Sep-12 21:03N 61°08' E 021°26'0 0.2
2018-Sep-12 21:01N 61°08' E 021°26'0 0.0
2018-Sep-12 20:30N 61°08' E 021°26'0 0.0
2018-Sep-12 20:03N 61°08' E 021°26'0 0.0
2018-Sep-12 20:00N 61°08' E 021°26'0 0.0
2018-Sep-12 19:30N 61°08' E 021°26'0 0.0
2018-Sep-12 19:03N 61°08' E 021°26'0 1.0
2018-Sep-12 19:00N 61°08' E 021°26'0 0.1
2018-Sep-12 18:29N 61°08' E 021°26'0 0.0
2018-Sep-12 18:03N 61°08' E 021°26'0 0.1
2018-Sep-12 17:58N 61°08' E 021°26'0 0.0
2018-Sep-12 17:28N 61°08' E 021°26'0 0.0
2018-Sep-12 17:02N 61°08' E 021°26'0 0.1
2018-Sep-12 16:59N 61°08' E 021°26'0 0.0
2018-Sep-12 16:25N 61°08' E 021°26'0 0.0
2018-Sep-12 16:02N 61°08' E 021°26'0 0.0
2018-Sep-12 15:56N 61°08' E 021°26'0 0.0
2018-Sep-12 15:23N 61°08' E 021°26'0 0.0
2018-Sep-12 14:58N 61°08' E 021°26'0 0.0
2018-Sep-12 13:59N 61°08' E 021°26'0 0.0
2018-Sep-12 13:28N 61°08' E 021°26'0 0.0
2018-Sep-12 13:01N 61°08' E 021°26'0 0.1
2018-Sep-12 12:55N 61°08' E 021°26'0 0.0
2018-Sep-12 12:27N 61°08' E 021°26'0 0.0
2018-Sep-12 12:02N 61°08' E 021°26'0 0.1
2018-Sep-12 11:59N 61°08' E 021°26'0 0.0
2018-Sep-12 11:28N 61°08' E 021°26'0 0.0
2018-Sep-12 11:01N 61°08' E 021°26'0 0.0
2018-Sep-12 10:58N 61°08' E 021°26'0 0.0
2018-Sep-12 10:28N 61°08' E 021°26'0 0.0
2018-Sep-12 10:00N 61°08' E 021°26'0 0.0
2018-Sep-12 09:27N 61°08' E 021°26'0 0.0
2018-Sep-12 09:03N 61°08' E 021°26'0 0.1
2018-Sep-12 09:00N 61°08' E 021°26'0 0.0
2018-Sep-12 08:30N 61°08' E 021°26'0 0.0
2018-Sep-12 08:01N 61°08' E 021°26'0 0.1
2018-Sep-12 07:58N 61°08' E 021°26'0 0.0
2018-Sep-12 07:27N 61°08' E 021°26'0 0.0
2018-Sep-12 07:01N 61°08' E 021°26'0 0.1
2018-Sep-12 06:53N 61°08' E 021°26'0 0.0
2018-Sep-12 06:25N 61°08' E 021°26'0 0.0
2018-Sep-12 06:01N 61°08' E 021°26'0 0.0
2018-Sep-12 05:58N 61°08' E 021°26'0 0.0
2018-Sep-12 05:24N 61°08' E 021°26'0 0.0
2018-Sep-12 05:03N 61°08' E 021°26'0 0.1
2018-Sep-12 05:00N 61°08' E 021°26'0 0.0
2018-Sep-12 04:30N 61°08' E 021°26'0 0.0
2018-Sep-12 04:03N 61°08' E 021°26'0 0.1
2018-Sep-12 04:00N 61°08' E 021°26'0 0.0
2018-Sep-12 03:30N 61°08' E 021°26'0 0.0
2018-Sep-12 03:03N 61°08' E 021°26'0 0.1
2018-Sep-12 03:00N 61°08' E 021°26'0 0.0
2018-Sep-12 02:30N 61°08' E 021°26'0 0.0
2018-Sep-12 02:03N 61°08' E 021°26'0 0.1
2018-Sep-12 02:00N 61°08' E 021°26'0 0.0
2018-Sep-12 01:30N 61°08' E 021°26'0 0.0
2018-Sep-12 01:03N 61°08' E 021°26'0 0.1
2018-Sep-12 01:00N 61°08' E 021°26'0 0.0
2018-Sep-12 00:30N 61°08' E 021°26'0 0.0
2018-Sep-12 00:03N 61°08' E 021°26'0 0.2
2018-Sep-12 00:00N 61°08' E 021°26'0 0.0
2018-Sep-11 23:30N 61°08' E 021°26'0 0.0
2018-Sep-11 23:03N 61°08' E 021°26'0 0.1
2018-Sep-11 23:00N 61°08' E 021°26'0 0.0
2018-Sep-11 22:30N 61°08' E 021°26'0 0.0
2018-Sep-11 22:03N 61°08' E 021°26'0 0.0
2018-Sep-11 22:00N 61°08' E 021°26'0 0.0
2018-Sep-11 21:30N 61°08' E 021°26'0 0.0
2018-Sep-11 21:00N 61°08' E 021°26'0 0.0
2018-Sep-11 20:27N 61°08' E 021°26'0 0.0
2018-Sep-11 20:03N 61°08' E 021°26'0 0.0
2018-Sep-11 20:00N 61°08' E 021°26'0 0.1
2018-Sep-11 19:30N 61°08' E 021°26'0 0.1
2018-Sep-11 19:03N 61°08' E 021°26'0 0.1
2018-Sep-11 19:00N 61°08' E 021°26'0 0.0
2018-Sep-11 18:30N 61°08' E 021°26'0 0.0
2018-Sep-11 18:03N 61°08' E 021°26'0 0.2
2018-Sep-11 18:00N 61°08' E 021°26'0 0.0
2018-Sep-11 17:30N 61°08' E 021°26'0 0.0
2018-Sep-11 17:02N 61°08' E 021°26'0 0.0
2018-Sep-11 16:59N 61°08' E 021°26'0 0.0
2018-Sep-11 16:29N 61°08' E 021°26'0 0.0
2018-Sep-11 16:02N 61°08' E 021°26'0 0.1
2018-Sep-11 15:56N 61°08' E 021°26'0 0.0
2018-Sep-11 15:26N 61°08' E 021°26'0 0.0
2018-Sep-11 15:02N 61°08' E 021°26'0 0.0
2018-Sep-11 14:59N 61°08' E 021°26'0 0.0
2018-Sep-11 14:29N 61°08' E 021°26'0 0.5
2018-Sep-11 14:00N 61°07' E 021°26'4 8.2
2018-Sep-11 13:31N 61°06' E 021°18'510.1
2018-Sep-11 13:01N 61°08' E 021°08'0 5.2
2018-Sep-11 13:00N 61°08' E 021°08'4 7.6
2018-Sep-11 12:30N 61°09' E 021°01'7014.2
2018-Sep-11 07:35N 60°29' E 019°04'117.3
2018-Sep-11 07:30N 60°28' E 019°03'817.3
2018-Sep-11 07:03N 60°20' E 019°01'117.2
2018-Sep-11 07:00N 60°19' E 019°01'816.8
2018-Sep-11 06:30N 60°11' E 019°07'816.9
2018-Sep-11 06:03N 60°06' E 019°17'117.0
2018-Sep-11 06:00N 60°05' E 019°18'917.1
2018-Sep-11 05:30N 59°58' E 019°29'817.2
2018-Sep-11 05:03N 59°52' E 019°38'117.2
2018-Sep-11 05:00N 59°52' E 019°39'917.0
2018-Sep-11 04:30N 59°45' E 019°50'816.8
2018-Sep-11 04:03N 59°39' E 019°60'116.6
2018-Sep-11 04:00N 59°39' E 020°01'815.5
2018-Sep-11 03:30N 59°32' E 020°10'716.3
2018-Sep-11 03:03N 59°25' E 020°05'116.8
2018-Sep-11 03:00N 59°25' E 020°05'1016.9
2018-Sep-11 02:25N 59°16' E 019°54'617.1
2018-Sep-11 02:03N 59°11' E 019°48'117.3
2018-Sep-11 02:00N 59°10' E 019°47'917.3
2018-Sep-11 01:30N 59°03' E 019°38'13817.2
2018-Sep-10 17:28N 57°03' E 017°30'2917.2
2018-Sep-10 15:46N 56°36' E 017°11'517.3
2018-Sep-10 15:30N 56°31' E 017°08'817.3
2018-Sep-10 15:02N 56°24' E 017°03'017.4
2018-Sep-10 15:00N 56°23' E 017°03'917.3
2018-Sep-10 14:30N 56°15' E 016°57'917.3
2018-Sep-10 14:00N 56°07' E 016°51'816.9
2018-Sep-10 13:30N 56°01' E 016°40'817.4
2018-Sep-10 13:03N 55°57' E 016°28'117.6
2018-Sep-10 13:00N 55°57' E 016°27'917.7
2018-Sep-10 12:30N 55°53' E 016°13'817.8
2018-Sep-10 12:03N 55°49' E 016°01'117.6
2018-Sep-10 12:00N 55°48' E 015°59'917.6
2018-Sep-10 11:30N 55°44' E 015°46'817.6
2018-Sep-10 11:03N 55°40' E 015°34'117.4
2018-Sep-10 11:00N 55°39' E 015°32'917.5
2018-Sep-10 10:30N 55°35' E 015°19'  

Dump ship's entire track history